Time;durP1;ratioP1;P1;durP2;ratioP2;P2;SDS_P1;SDS_P2;PMS_P1;PMS_P2;Temp;Humidity;BMP_temperature;BMP_pressure;BME280_temperature;BME280_humidity;BME280_pressure;Samples;Min_cycle;Max_cycle;Signal;HPM_P1;HPM_P2
2022/09/30 00:00:43;;;;;;;12.73;2.83;;;17.00;99.90;;;;;;5051370;28;20207;-79
2022/09/30 00:03:14;;;;;;;14.13;2.90;;;17.10;99.90;;;;;;5063828;28;20188;-79
2022/09/30 00:05:45;;;;;;;14.60;3.10;;;17.10;99.90;;;;;;5053866;28;20651;-79
2022/09/30 00:08:18;;;;;;;11.70;2.47;;;17.20;99.90;;;;;;5038229;28;20228;-79
2022/09/30 00:11:00;;;;;;;12.73;3.00;;;17.30;99.90;;;;;;5056716;28;20218;-80
2022/09/30 00:13:30;;;;;;;17.33;3.50;;;17.30;99.90;;;;;;5039775;28;20632;-80
2022/09/30 00:16:02;;;;;;;16.60;3.03;;;17.40;99.90;;;;;;5046272;28;20220;-79
2022/09/30 00:18:33;;;;;;;15.30;2.92;;;17.50;99.90;;;;;;5034183;28;20198;-80
2022/09/30 00:21:05;;;;;;;12.77;2.97;;;17.50;99.90;;;;;;5036603;28;20197;-79
2022/09/30 00:23:36;;;;;;;14.68;2.95;;;17.50;99.90;;;;;;5051575;28;20200;-81
2022/09/30 00:26:10;;;;;;;12.02;2.40;;;17.40;99.90;;;;;;5037458;28;20233;-80
2022/09/30 00:28:43;;;;;;;13.75;2.55;;;17.40;99.90;;;;;;5033347;28;20255;-79
2022/09/30 00:31:18;;;;;;;14.25;3.10;;;17.50;99.90;;;;;;5051371;28;20209;-79
2022/09/30 00:34:05;;;;;;;12.27;2.45;;;17.70;99.90;;;;;;5031443;28;20203;-79
2022/09/30 00:36:38;;;;;;;12.43;2.55;;;17.80;99.90;;;;;;5045163;28;20255;-80
2022/09/30 00:39:09;;;;;;;14.52;2.70;;;18.00;99.90;;;;;;5046798;28;20198;-79
2022/09/30 00:41:42;;;;;;;12.82;2.45;;;18.20;99.90;;;;;;5046261;28;20656;-79
2022/09/30 00:44:49;;;;;;;13.70;2.67;;;18.10;99.90;;;;;;5051099;28;20207;-80
2022/09/30 00:47:42;;;;;;;12.77;2.42;;;18.20;99.90;;;;;;5029484;28;20602;-79
2022/09/30 00:50:32;;;;;;;9.57;2.05;;;18.00;99.90;;;;;;5047309;28;20204;-79
2022/09/30 00:53:11;;;;;;;11.88;2.25;;;17.90;99.90;;;;;;5030801;28;20201;-78
2022/09/30 00:55:48;;;;;;;16.38;2.75;;;17.90;99.90;;;;;;5038336;28;20837;-80
2022/09/30 00:58:26;;;;;;;14.80;3.13;;;17.90;99.90;;;;;;5041107;28;20200;-79
2022/09/30 01:00:58;;;;;;;15.68;2.85;;;18.00;99.90;;;;;;5035843;28;20193;-79
2022/09/30 01:03:30;;;;;;;23.90;5.20;;;18.20;99.90;;;;;;5035137;28;20198;-79
2022/09/30 01:06:01;;;;;;;19.42;4.30;;;18.20;99.90;;;;;;5030671;28;20197;-82
2022/09/30 01:08:35;;;;;;;14.95;3.38;;;18.20;99.90;;;;;;5051324;28;20208;-82
2022/09/30 01:11:05;;;;;;;15.77;3.40;;;18.20;99.90;;;;;;5074152;28;20211;-82
2022/09/30 01:13:40;;;;;;;15.90;4.70;;;18.10;99.90;;;;;;5070394;28;20681;-82
2022/09/30 01:16:26;;;;;;;11.50;2.63;;;18.00;99.90;;;;;;5071353;28;20222;-82
2022/09/30 01:19:17;;;;;;;10.98;2.47;;;18.10;99.90;;;;;;5031400;28;20212;-82
2022/09/30 01:22:36;;;;;;;14.43;2.72;;;18.20;99.90;;;;;;5030958;28;20201;-82
2022/09/30 01:25:42;;;;;;;12.75;2.30;;;18.40;99.90;;;;;;4983907;28;20211;-82
2022/09/30 01:28:32;;;;;;;16.80;2.85;;;18.50;99.90;;;;;;4985950;28;20235;-81
2022/09/30 01:31:19;;;;;;;15.98;2.75;;;18.70;99.90;;;;;;5030084;28;20241;-81
2022/09/30 01:34:01;;;;;;;11.48;2.40;;;19.00;99.90;;;;;;5032693;28;20710;-82
2022/09/30 01:36:43;;;;;;;15.13;2.50;;;19.10;99.90;;;;;;5054809;28;20670;-82
2022/09/30 01:39:27;;;;;;;17.58;3.03;;;19.10;99.90;;;;;;5052637;28;20247;-81
2022/09/30 01:42:07;;;;;;;14.15;3.05;;;19.10;99.90;;;;;;5049542;28;20197;-81
2022/09/30 01:44:48;;;;;;;14.10;2.50;;;19.10;99.90;;;;;;5042345;28;20201;-82
2022/09/30 01:47:26;;;;;;;11.18;2.33;;;19.10;99.90;;;;;;5042098;28;20308;-82
2022/09/30 01:50:04;;;;;;;10.07;2.10;;;19.00;99.90;;;;;;5054010;28;20199;-82
2022/09/30 01:52:40;;;;;;;12.32;1.92;;;19.00;99.90;;;;;;5036568;28;20674;-82
2022/09/30 01:55:19;;;;;;;16.15;2.38;;;18.90;99.90;;;;;;5030544;28;20220;-81
2022/09/30 01:58:01;;;;;;;10.43;2.38;;;18.90;99.90;;;;;;5037634;28;20544;-82
2022/09/30 02:00:32;;;;;;;8.43;2.17;;;19.00;99.90;;;;;;5052087;28;20640;-82
2022/09/30 02:03:10;;;;;;;10.25;1.98;;;19.00;99.90;;;;;;5033519;28;20212;-84
2022/09/30 02:05:46;;;;;;;9.05;1.88;;;19.10;99.90;;;;;;5033709;28;20625;-81
2022/09/30 02:08:20;;;;;;;11.23;2.08;;;19.10;99.90;;;;;;5042592;28;20303;-81
2022/09/30 02:10:55;;;;;;;10.82;2.35;;;19.10;99.90;;;;;;5051755;28;20192;-82
2022/09/30 02:13:33;;;;;;;13.27;2.53;;;19.00;99.90;;;;;;5061153;28;20205;-81
2022/09/30 02:16:11;;;;;;;13.98;2.40;;;18.90;99.90;;;;;;5034224;28;20197;-82
2022/09/30 02:18:46;;;;;;;12.85;2.63;;;18.70;99.90;;;;;;5048399;28;20628;-81
2022/09/30 02:21:21;;;;;;;11.68;2.25;;;18.40;99.90;;;;;;5050408;28;20249;-81
2022/09/30 02:23:55;;;;;;;11.35;2.28;;;18.20;99.90;;;;;;5050735;28;20192;-81
2022/09/30 02:26:29;;;;;;;15.55;2.65;;;17.90;99.90;;;;;;5049630;28;20201;-81
2022/09/30 02:29:03;;;;;;;12.02;2.88;;;18.00;99.90;;;;;;5051839;28;20694;-84
2022/09/30 02:31:37;;;;;;;10.02;2.58;;;18.10;99.90;;;;;;5050607;28;20201;-81
2022/09/30 02:34:14;;;;;;;7.72;1.90;;;18.30;99.90;;;;;;5041783;28;20193;-82
2022/09/30 02:36:49;;;;;;;13.65;2.55;;;18.50;99.90;;;;;;5037410;28;20224;-82
2022/09/30 02:39:26;;;;;;;15.40;2.67;;;18.70;99.90;;;;;;5030119;28;20205;-81
2022/09/30 02:42:05;;;;;;;10.82;2.25;;;18.90;99.90;;;;;;5044104;28;20197;-81
2022/09/30 02:44:36;;;;;;;11.05;2.60;;;18.80;99.90;;;;;;5049826;28;20204;-78
2022/09/30 02:47:16;;;;;;;9.65;2.63;;;18.60;99.90;;;;;;5049727;28;20201;-78
2022/09/30 02:49:53;;;;;;;8.65;2.22;;;18.30;99.90;;;;;;5050206;28;20197;-77
2022/09/30 02:52:29;;;;;;;11.32;2.35;;;18.30;99.90;;;;;;5033314;28;20197;-78
2022/09/30 02:55:19;;;;;;;10.73;2.33;;;18.20;99.90;;;;;;5033021;28;20229;-78
2022/09/30 02:57:59;;;;;;;9.50;1.90;;;18.10;99.90;;;;;;5033395;28;20207;-78
2022/09/30 03:00:30;;;;;;;12.10;2.92;;;18.00;99.90;;;;;;5033551;28;20224;-78
2022/09/30 03:03:06;;;;;;;8.30;1.92;;;17.90;99.90;;;;;;5032934;28;20193;-79
2022/09/30 03:05:39;;;;;;;8.48;1.92;;;18.00;99.90;;;;;;5034317;28;20278;-79
2022/09/30 03:08:09;;;;;;;12.02;2.13;;;18.00;99.90;;;;;;5053320;28;20220;-78
2022/09/30 03:10:41;;;;;;;11.25;2.03;;;18.00;99.90;;;;;;5054255;28;20262;-79
2022/09/30 03:13:25;;;;;;;10.73;2.22;;;18.00;99.90;;;;;;5042622;28;20682;-80
2022/09/30 03:16:08;;;;;;;13.30;2.78;;;18.00;99.90;;;;;;5033919;28;20197;-79
2022/09/30 03:18:58;;;;;;;10.48;2.70;;;17.90;99.90;;;;;;5049610;28;20299;-77
2022/09/30 03:21:47;;;;;;;11.50;2.28;;;17.70;99.90;;;;;;5037860;28;20208;-77
2022/09/30 03:24:47;;;;;;;11.23;2.45;;;17.70;99.90;;;;;;5033228;28;20193;-78
2022/09/30 03:27:29;;;;;;;9.48;2.42;;;17.70;99.90;;;;;;5042174;28;20189;-78
2022/09/30 03:30:04;;;;;;;10.63;2.17;;;17.70;99.90;;;;;;5052216;28;20224;-77
2022/09/30 03:32:49;;;;;;;13.60;2.55;;;17.70;99.90;;;;;;5050957;28;20249;-79
2022/09/30 03:35:25;;;;;;;14.48;2.38;;;17.70;99.90;;;;;;5050999;28;20254;-79
2022/09/30 03:38:05;;;;;;;13.23;2.45;;;17.70;99.90;;;;;;5046475;28;20223;-78
2022/09/30 03:44:05;;;;;;;16.20;2.90;;;17.90;99.90;;;;;;5061933;28;20180;-80
2022/09/30 03:46:40;;;;;;;16.73;3.03;;;18.00;99.90;;;;;;5065542;28;20189;-81
2022/09/30 03:49:25;;;;;;;10.20;2.10;;;18.00;99.90;;;;;;5043567;28;20220;-81
2022/09/30 03:52:16;;;;;;;12.02;2.42;;;18.00;99.90;;;;;;5062166;28;20232;-79
2022/09/30 03:57:43;;;;;;;10.73;2.40;;;18.10;99.90;;;;;;5061467;28;20204;-78
2022/09/30 04:00:15;;;;;;;10.45;2.45;;;18.30;99.90;;;;;;5063791;28;20200;-77
2022/09/30 04:03:10;;;;;;;10.68;1.92;;;18.30;99.90;;;;;;5060668;28;20197;-80
2022/09/30 04:05:50;;;;;;;12.40;1.92;;;18.50;99.90;;;;;;5047108;28;20295;-78
2022/09/30 04:08:28;;;;;;;7.03;1.75;;;18.50;99.90;;;;;;5046360;28;20228;-81
2022/09/30 04:11:14;;;;;;;5.38;1.50;;;18.60;99.90;;;;;;5041987;28;20204;-82
2022/09/30 04:14:00;;;;;;;4.68;1.20;;;18.90;99.90;;;;;;5038353;28;20211;-81
2022/09/30 04:16:45;;;;;;;8.63;1.52;;;19.00;99.90;;;;;;5056313;28;20311;-80
2022/09/30 04:19:16;;;;;;;5.50;1.30;;;19.10;99.90;;;;;;5055024;28;20663;-79
2022/09/30 04:24:47;;;;;;;6.35;1.60;;;19.20;99.90;;;;;;5057843;28;20577;-80
2022/09/30 04:27:32;;;;;;;7.07;1.50;;;19.20;99.90;;;;;;5042726;28;20213;-80
2022/09/30 04:30:07;;;;;;;3.88;1.00;;;19.40;99.90;;;;;;5052794;28;20224;-79
2022/09/30 04:32:46;;;;;;;7.05;1.20;;;19.50;99.90;;;;;;5046165;28;20184;-80
2022/09/30 04:38:10;;;;;;;2.17;0.98;;;19.70;99.90;;;;;;5042815;28;20201;-81
2022/09/30 04:40:51;;;;;;;4.93;1.20;;;19.90;99.90;;;;;;5042745;28;20189;-79
2022/09/30 04:43:31;;;;;;;6.10;1.35;;;20.10;99.90;;;;;;5047668;28;20197;-79
2022/09/30 04:46:22;;;;;;;4.82;1.30;;;20.20;99.90;;;;;;5063864;28;20200;-80
2022/09/30 04:48:56;;;;;;;6.05;1.48;;;20.30;99.90;;;;;;5043286;28;20271;-79
2022/09/30 04:51:28;;;;;;;7.18;1.33;;;20.30;99.90;;;;;;5044325;28;20208;-80
2022/09/30 04:54:01;;;;;;;7.57;1.42;;;20.10;99.90;;;;;;5042176;28;20267;-83
2022/09/30 04:56:34;;;;;;;5.47;1.38;;;20.10;99.90;;;;;;5048374;28;20187;-81
2022/09/30 04:59:15;;;;;;;5.32;1.50;;;20.10;99.90;;;;;;5064356;28;20200;-82
2022/09/30 05:02:01;;;;;;;6.20;1.30;;;20.00;99.90;;;;;;5084995;28;20200;-80
2022/09/30 05:04:33;;;;;;;5.82;1.45;;;19.90;99.90;;;;;;5066655;28;20275;-80
2022/09/30 05:07:07;;;;;;;4.15;1.20;;;19.90;99.90;;;;;;5053871;28;20189;-79
2022/09/30 05:09:38;;;;;;;6.72;1.58;;;19.80;99.90;;;;;;5055178;28;20259;-82
2022/09/30 05:12:09;;;;;;;5.88;1.42;;;19.60;99.90;;;;;;5063942;28;20283;-79
2022/09/30 05:14:56;;;;;;;5.00;1.63;;;19.60;99.90;;;;;;5065442;28;20303;-81
2022/09/30 05:17:55;;;;;;;5.15;1.50;;;19.60;99.90;;;;;;5044825;28;20201;-78
2022/09/30 05:20:29;;;;;;;5.60;1.40;;;19.80;99.90;;;;;;5055282;28;20208;-79
2022/09/30 05:23:00;;;;;;;11.38;1.73;;;20.20;99.90;;;;;;5066828;28;20200;-82
2022/09/30 05:25:36;;;;;;;6.18;1.58;;;20.60;99.90;;;;;;5069346;28;20220;-79
2022/09/30 05:28:16;;;;;;;8.00;1.45;;;20.90;99.90;;;;;;5064885;28;20215;-81
2022/09/30 05:30:51;;;;;;;4.78;1.13;;;21.00;99.90;;;;;;5028219;28;20232;-80
2022/09/30 05:33:33;;;;;;;3.30;1.05;;;21.00;99.90;;;;;;5045154;28;20283;-81
2022/09/30 05:36:10;;;;;;;8.02;1.35;;;21.10;99.90;;;;;;5049625;28;20264;-79
2022/09/30 05:38:41;;;;;;;5.03;1.23;;;21.20;99.90;;;;;;5050510;28;20200;-80
2022/09/30 05:41:18;;;;;;;5.30;1.17;;;21.00;99.90;;;;;;5043449;28;20197;-82
2022/09/30 05:44:03;;;;;;;3.15;1.08;;;20.70;99.90;;;;;;5059899;28;20659;-83
2022/09/30 05:46:39;;;;;;;3.58;0.95;;;20.30;99.90;;;;;;5049647;28;20197;-81
2022/09/30 05:49:13;;;;;;;3.97;1.10;;;19.80;99.90;;;;;;5048795;28;20228;-80
2022/09/30 05:51:45;;;;;;;5.30;0.88;;;19.50;99.90;;;;;;5059977;28;20207;-80
2022/09/30 05:54:16;;;;;;;4.85;1.20;;;19.20;99.90;;;;;;5054094;28;20211;-79
2022/09/30 05:56:47;;;;;;;7.82;1.58;;;19.20;99.90;;;;;;5050032;28;20196;-80
2022/09/30 05:59:18;;;;;;;5.95;1.35;;;19.00;99.90;;;;;;5050900;28;20207;-80
2022/09/30 06:01:51;;;;;;;5.20;1.42;;;18.80;99.90;;;;;;5051475;28;20200;-82
2022/09/30 06:04:22;;;;;;;4.88;1.30;;;18.70;99.90;;;;;;5050464;28;20241;-80
2022/09/30 06:06:53;;;;;;;6.63;1.45;;;18.70;99.90;;;;;;5040021;28;20202;-81
2022/09/30 06:09:24;;;;;;;8.65;1.75;;;18.70;99.90;;;;;;5030428;28;20745;-81
2022/09/30 06:11:54;;;;;;;4.50;1.40;;;18.60;99.90;;;;;;5041504;28;20196;-82
2022/09/30 06:14:27;;;;;;;5.38;1.33;;;18.50;99.90;;;;;;5050380;28;20224;-81
2022/09/30 06:17:00;;;;;;;8.43;1.67;;;18.50;99.90;;;;;;5050163;28;20203;-81
2022/09/30 06:19:31;;;;;;;10.27;1.58;;;18.50;99.90;;;;;;5049079;28;20196;-81
2022/09/30 06:22:02;;;;;;;7.07;1.75;;;18.50;99.90;;;;;;5048471;28;20204;-81
2022/09/30 06:24:33;;;;;;;7.45;1.42;;;18.40;99.90;;;;;;5034219;28;20201;-79
2022/09/30 06:27:03;;;;;;;9.73;1.98;;;18.50;99.90;;;;;;5034043;28;20201;-80
2022/09/30 06:29:34;;;;;;;5.53;1.60;;;18.40;99.90;;;;;;5048381;28;20224;-80
2022/09/30 06:32:07;;;;;;;8.85;1.73;;;18.30;99.90;;;;;;5065032;28;20306;-80
2022/09/30 06:34:38;;;;;;;10.80;2.00;;;18.30;99.90;;;;;;5054452;28;20281;-80
2022/09/30 06:37:10;;;;;;;5.38;1.77;;;18.10;99.90;;;;;;5040620;28;20193;-80
2022/09/30 06:39:41;;;;;;;7.93;1.88;;;18.00;99.90;;;;;;5033651;28;20212;-78
2022/09/30 06:42:12;;;;;;;11.70;1.98;;;17.80;99.90;;;;;;5053884;28;20196;-79
2022/09/30 06:44:43;;;;;;;8.85;1.50;;;17.80;99.90;;;;;;5053263;28;20200;-78
2022/09/30 06:47:16;;;;;;;8.40;1.52;;;17.80;99.90;;;;;;5053652;28;20196;-78
2022/09/30 06:49:47;;;;;;;7.25;1.63;;;17.70;99.90;;;;;;5055433;28;20217;-78
2022/09/30 06:52:18;;;;;;;5.80;1.58;;;17.70;99.90;;;;;;5050134;28;20586;-78
2022/09/30 06:54:50;;;;;;;5.10;1.25;;;17.70;99.90;;;;;;5033623;28;20725;-78
2022/09/30 06:57:23;;;;;;;5.65;1.63;;;17.70;99.90;;;;;;5034632;28;20201;-77
2022/09/30 06:59:55;;;;;;;4.90;2.30;;;17.80;99.90;;;;;;5035657;28;20395;-77
2022/09/30 07:02:28;;;;;;;8.15;1.67;;;17.70;99.90;;;;;;5053351;28;20205;-77
2022/09/30 07:04:58;;;;;;;6.25;1.50;;;17.70;99.90;;;;;;5051836;28;20189;-78
2022/09/30 07:07:32;;;;;;;6.30;1.67;;;17.50;99.90;;;;;;5053323;28;20220;-78
2022/09/30 07:10:03;;;;;;;8.10;2.20;;;17.50;99.90;;;;;;5053512;28;20229;-77
2022/09/30 07:12:34;;;;;;;8.43;2.08;;;17.50;99.90;;;;;;5053399;28;20203;-78
2022/09/30 07:15:05;;;;;;;8.18;1.80;;;17.40;99.90;;;;;;5041420;28;20197;-77
2022/09/30 07:17:37;;;;;;;4.22;1.50;;;17.40;99.90;;;;;;5050228;28;20735;-77
2022/09/30 07:20:09;;;;;;;6.03;1.77;;;17.40;99.90;;;;;;5053568;28;20209;-77
2022/09/30 07:22:39;;;;;;;7.22;1.75;;;17.40;99.90;;;;;;5055389;28;20604;-77
2022/09/30 07:25:11;;;;;;;8.93;2.10;;;17.30;99.90;;;;;;5054628;28;20587;-77
2022/09/30 07:27:41;;;;;;;11.57;2.35;;;17.40;99.90;;;;;;5035291;28;20657;-76
2022/09/30 07:30:13;;;;;;;9.95;2.63;;;17.40;99.90;;;;;;5038471;28;20263;-77
2022/09/30 07:32:45;;;;;;;8.65;2.42;;;17.30;99.90;;;;;;5042828;28;20262;-77
2022/09/30 07:35:16;;;;;;;14.23;2.53;;;17.30;99.90;;;;;;5053765;28;20192;-77
2022/09/30 07:37:47;;;;;;;13.88;2.53;;;17.30;99.90;;;;;;5059205;28;20193;-76
2022/09/30 07:40:18;;;;;;;10.55;2.20;;;17.20;99.90;;;;;;5052905;28;20250;-77
2022/09/30 07:42:48;;;;;;;13.57;2.60;;;17.10;99.90;;;;;;5037109;28;20208;-77
2022/09/30 07:45:19;;;;;;;11.90;2.65;;;17.10;99.90;;;;;;5032789;28;20288;-79
2022/09/30 07:47:53;;;;;;;13.10;2.33;;;17.10;99.90;;;;;;5033721;28;20197;-77
2022/09/30 07:50:25;;;;;;;17.70;2.60;;;17.00;99.90;;;;;;5049372;28;20244;-77
2022/09/30 07:52:56;;;;;;;18.30;3.63;;;16.90;99.90;;;;;;5043678;28;20204;-76
2022/09/30 07:55:27;;;;;;;16.63;3.40;;;16.90;99.90;;;;;;5048866;28;20264;-78
2022/09/30 07:57:58;;;;;;;18.98;3.70;;;16.90;99.90;;;;;;5048174;28;20190;-79
2022/09/30 08:00:28;;;;;;;17.83;3.70;;;16.80;99.90;;;;;;5033109;28;20618;-79
2022/09/30 08:03:01;;;;;;;12.98;2.75;;;16.90;99.90;;;;;;5033137;28;20197;-78
2022/09/30 08:05:32;;;;;;;15.52;3.38;;;16.80;99.90;;;;;;5033797;28;20197;-78
2022/09/30 08:08:03;;;;;;;18.73;3.20;;;16.90;99.90;;;;;;5032602;28;20198;-77
2022/09/30 08:10:38;;;;;;;20.48;3.88;;;17.00;99.90;;;;;;5032488;28;20220;-76
2022/09/30 08:13:09;;;;;;;17.95;3.90;;;16.90;99.90;;;;;;5033877;28;20240;-77
2022/09/30 08:15:40;;;;;;;20.73;3.75;;;16.90;99.90;;;;;;5032726;28;20193;-78
2022/09/30 08:18:12;;;;;;;21.55;3.85;;;17.00;99.90;;;;;;5032752;28;20195;-79
2022/09/30 08:20:43;;;;;;;22.25;4.32;;;17.00;99.90;;;;;;5041186;28;20197;-79
2022/09/30 08:23:14;;;;;;;26.73;4.63;;;17.00;99.90;;;;;;5052108;28;20197;-77
2022/09/30 08:25:45;;;;;;;18.95;3.90;;;17.00;99.90;;;;;;5042589;28;20198;-77
2022/09/30 08:28:17;;;;;;;22.98;4.50;;;17.00;99.90;;;;;;5041566;28;20204;-76
2022/09/30 08:30:47;;;;;;;18.80;3.92;;;17.00;99.90;;;;;;5052153;28;20564;-76
2022/09/30 08:33:20;;;;;;;19.90;4.00;;;17.00;99.90;;;;;;5041982;28;20197;-77
2022/09/30 08:35:51;;;;;;;17.85;4.10;;;17.00;99.90;;;;;;5032335;28;20205;-78
2022/09/30 08:38:21;;;;;;;15.82;3.88;;;17.00;99.90;;;;;;5032174;28;20208;-77
2022/09/30 08:41:03;;;;;;;22.60;4.68;;;17.00;99.90;;;;;;5057850;28;20208;-78
2022/09/30 08:43:40;;;;;;;20.00;3.85;;;16.90;99.90;;;;;;5050769;28;20195;-78
2022/09/30 08:46:17;;;;;;;17.63;3.72;;;16.80;99.90;;;;;;5049552;28;20916;-77
2022/09/30 08:48:58;;;;;;;18.60;3.60;;;16.70;99.90;;;;;;5039613;28;20193;-77
2022/09/30 08:51:38;;;;;;;13.88;2.83;;;16.80;99.90;;;;;;5031660;28;20200;-77
2022/09/30 08:54:15;;;;;;;17.17;3.40;;;16.80;99.90;;;;;;5049390;28;20235;-77
2022/09/30 08:56:47;;;;;;;19.05;3.88;;;16.80;99.90;;;;;;5050520;28;20282;-77
2022/09/30 08:59:41;;;;;;;22.30;4.28;;;16.80;99.90;;;;;;5055751;28;20247;-78
2022/09/30 09:02:22;;;;;;;18.35;3.60;;;16.80;99.90;;;;;;5062558;28;20287;-77
2022/09/30 09:05:05;;;;;;;20.35;4.38;;;16.90;99.90;;;;;;5054924;28;20193;-77
2022/09/30 09:07:43;;;;;;;17.80;3.47;;;16.80;99.90;;;;;;5043491;28;20655;-77
2022/09/30 09:10:38;;;;;;;14.27;3.25;;;16.80;99.90;;;;;;5049457;28;20212;-77
2022/09/30 09:13:24;;;;;;;21.75;3.90;;;16.80;99.90;;;;;;5061397;28;20232;-77
2022/09/30 09:16:05;;;;;;;18.33;3.88;;;16.80;99.90;;;;;;5061302;28;20227;-76
2022/09/30 09:18:48;;;;;;;16.67;3.13;;;16.90;99.90;;;;;;5063532;28;20201;-78
2022/09/30 09:21:48;;;;;;;15.82;3.67;;;16.90;99.90;;;;;;5066526;28;20224;-77
2022/09/30 09:24:31;;;;;;;16.42;3.78;;;16.90;99.90;;;;;;5047364;28;20276;-76
2022/09/30 09:27:02;;;;;;;14.40;3.40;;;17.00;99.90;;;;;;5041591;28;20276;-77
2022/09/30 09:30:05;;;;;;;16.30;3.47;;;17.00;99.90;;;;;;5065867;28;20289;-77
2022/09/30 09:32:41;;;;;;;20.27;3.95;;;17.00;99.90;;;;;;5023987;28;20729;-76
2022/09/30 09:35:43;;;;;;;18.02;4.15;;;17.00;99.90;;;;;;5040640;28;20659;-78
2022/09/30 09:38:34;;;;;;;19.63;3.88;;;17.00;99.90;;;;;;5040392;28;20192;-78
2022/09/30 09:41:22;;;;;;;15.60;3.38;;;17.00;99.90;;;;;;5052355;28;20220;-82
2022/09/30 09:44:05;;;;;;;20.85;4.00;;;17.00;99.90;;;;;;5060684;28;20196;-77
2022/09/30 09:46:42;;;;;;;17.38;3.60;;;17.00;99.90;;;;;;5053540;28;20193;-77
2022/09/30 09:49:34;;;;;;;13.85;3.40;;;17.00;99.90;;;;;;5042666;28;20201;-79
2022/09/30 09:52:39;;;;;;;17.13;3.72;;;17.00;99.90;;;;;;5040157;28;20197;-79
2022/09/30 09:55:37;;;;;;;13.70;2.90;;;17.00;99.90;;;;;;5038273;28;20229;-79
2022/09/30 09:58:16;;;;;;;18.85;3.40;;;17.00;99.90;;;;;;5072157;28;20209;-78
2022/09/30 10:03:34;;;;;;;18.67;3.70;;;17.00;99.90;;;;;;5055712;28;20208;-79
2022/09/30 10:06:11;;;;;;;21.52;3.78;;;17.00;99.90;;;;;;5032769;28;20200;-78
2022/09/30 10:08:56;;;;;;;15.18;3.70;;;17.00;99.90;;;;;;5063980;28;20610;-79
2022/09/30 10:11:29;;;;;;;15.02;3.60;;;16.90;99.90;;;;;;5066202;28;20224;-77
2022/09/30 10:14:18;;;;;;;17.02;3.70;;;16.90;99.90;;;;;;5045637;28;20603;-77
2022/09/30 10:16:50;;;;;;;12.55;3.40;;;16.90;99.90;;;;;;5045783;28;20205;-77
2022/09/30 10:19:30;;;;;;;13.80;4.07;;;16.90;99.90;;;;;;5047919;28;20190;-76
2022/09/30 10:22:22;;;;;;;18.42;3.80;;;16.90;99.90;;;;;;5035601;28;20205;-77
2022/09/30 10:24:52;;;;;;;17.25;3.53;;;16.90;99.90;;;;;;5042792;28;20550;-78
2022/09/30 10:27:35;;;;;;;9.82;3.40;;;16.90;99.90;;;;;;5036690;28;20222;-78
2022/09/30 10:30:13;;;;;;;15.25;3.47;;;16.90;99.90;;;;;;5056712;28;20307;-77
2022/09/30 10:32:44;;;;;;;12.95;3.50;;;17.00;99.90;;;;;;5084568;28;20207;-77
2022/09/30 10:35:26;;;;;;;15.15;3.85;;;16.90;99.90;;;;;;5086561;28;20184;-78
2022/09/30 10:38:03;;;;;;;16.83;3.47;;;17.00;99.90;;;;;;5084837;28;20196;-78
2022/09/30 10:40:40;;;;;;;19.73;5.35;;;16.90;99.90;;;;;;5086858;28;20199;-76
2022/09/30 10:43:28;;;;;;;19.38;8.95;;;16.90;99.90;;;;;;5084970;28;20200;-78
2022/09/30 10:46:10;;;;;;;22.55;9.20;;;16.90;99.90;;;;;;5086970;28;20208;-77
2022/09/30 10:48:56;;;;;;;23.58;6.55;;;16.90;99.90;;;;;;5055144;28;20204;-79
2022/09/30 10:51:40;;;;;;;13.52;4.82;;;16.80;99.90;;;;;;5053160;28;20248;-77
2022/09/30 10:54:56;;;;;;;16.80;4.75;;;16.80;99.90;;;;;;5048680;28;20229;-77
2022/09/30 10:57:34;;;;;;;17.80;3.53;;;16.80;99.90;;;;;;5041984;28;20228;-75
2022/09/30 11:00:17;;;;;;;18.50;3.50;;;16.90;99.90;;;;;;5044682;28;20196;-77
2022/09/30 11:02:57;;;;;;;16.23;3.47;;;16.90;99.90;;;;;;5043570;28;20251;-76
2022/09/30 11:05:33;;;;;;;18.42;3.53;;;16.90;99.90;;;;;;5054974;28;20207;-76
2022/09/30 11:08:16;;;;;;;17.45;3.45;;;17.00;99.90;;;;;;5050729;28;20293;-76
2022/09/30 11:11:08;;;;;;;17.25;3.40;;;17.00;99.90;;;;;;5045599;28;20228;-79
2022/09/30 11:13:51;;;;;;;12.73;2.97;;;17.00;99.90;;;;;;5062427;28;20200;-78
2022/09/30 11:16:32;;;;;;;17.90;3.75;;;17.00;99.90;;;;;;5065866;28;20204;-79
2022/09/30 11:19:10;;;;;;;16.25;3.90;;;17.00;99.90;;;;;;5043761;28;20197;-78
2022/09/30 11:21:52;;;;;;;16.17;3.33;;;17.00;99.90;;;;;;5054152;28;20279;-78
2022/09/30 11:24:30;;;;;;;19.30;3.83;;;17.00;99.90;;;;;;5070988;28;20176;-78
2022/09/30 11:27:10;;;;;;;16.42;3.08;;;17.00;99.90;;;;;;5067990;28;20200;-76
2022/09/30 11:29:56;;;;;;;17.58;3.38;;;17.00;99.90;;;;;;5062565;28;20189;-78
2022/09/30 11:32:42;;;;;;;12.05;3.03;;;17.00;99.90;;;;;;5050747;28;20193;-77
2022/09/30 11:35:34;;;;;;;13.98;3.60;;;17.10;99.90;;;;;;5031330;28;20288;-77
2022/09/30 11:38:19;;;;;;;18.15;4.13;;;17.10;99.90;;;;;;5044273;28;20236;-77
2022/09/30 11:40:59;;;;;;;13.55;3.13;;;17.00;99.90;;;;;;5045605;28;20204;-77
2022/09/30 11:43:39;;;;;;;10.88;2.95;;;17.00;99.90;;;;;;5042360;28;20201;-77
2022/09/30 11:46:32;;;;;;;14.95;2.95;;;17.00;99.90;;;;;;5046102;28;20188;-76
2022/09/30 11:49:33;;;;;;;12.95;3.05;;;17.00;99.90;;;;;;5062662;28;20189;-78
2022/09/30 11:52:17;;;;;;;12.57;2.92;;;17.00;99.90;;;;;;5047536;28;20594;-77
2022/09/30 11:55:06;;;;;;;20.83;3.53;;;17.00;99.90;;;;;;4929486;28;3834381;-77
2022/09/30 11:57:47;;;;;;;14.65;2.75;;;17.00;99.90;;;;;;5056603;28;20196;-77
2022/09/30 12:00:19;;;;;;;14.65;2.72;;;16.90;99.90;;;;;;5068935;28;20261;-77
2022/09/30 12:02:54;;;;;;;14.23;2.65;;;16.90;99.90;;;;;;5065026;28;20251;-77
2022/09/30 12:05:32;;;;;;;14.43;3.10;;;16.90;99.90;;;;;;5063547;28;20232;-76
2022/09/30 12:08:10;;;;;;;12.38;3.20;;;16.80;99.90;;;;;;5064813;28;20197;-77
2022/09/30 12:10:45;;;;;;;12.55;3.20;;;16.80;99.90;;;;;;5047154;28;20205;-76
2022/09/30 12:13:21;;;;;;;11.80;2.72;;;16.80;99.90;;;;;;5051488;28;20250;-77
2022/09/30 12:15:54;;;;;;;15.38;3.10;;;16.70;99.90;;;;;;5063059;28;20262;-78
2022/09/30 12:18:29;;;;;;;14.70;3.15;;;16.70;99.90;;;;;;5063604;28;20192;-77
2022/09/30 12:21:05;;;;;;;18.35;3.22;;;16.70;99.90;;;;;;5061466;28;20204;-77
2022/09/30 12:23:43;;;;;;;9.48;2.70;;;16.70;99.90;;;;;;5061916;28;20204;-75
2022/09/30 12:26:15;;;;;;;11.15;2.55;;;16.70;99.90;;;;;;5044203;28;20197;-78
2022/09/30 12:32:02;;;;;;;13.57;2.70;;;16.70;99.90;;;;;;5044328;28;20287;-77
2022/09/30 12:34:47;;;;;;;13.23;3.17;;;16.70;99.90;;;;;;5046194;28;20587;-77
2022/09/30 12:37:33;;;;;;;13.00;2.78;;;16.70;99.90;;;;;;5050555;28;20204;-78
2022/09/30 12:40:43;;;;;;;13.82;2.42;;;16.70;99.90;;;;;;5066543;28;20196;-78
2022/09/30 12:43:44;;;;;;;12.80;2.40;;;16.70;99.90;;;;;;5045575;28;20200;-77
2022/09/30 12:46:24;;;;;;;12.75;2.70;;;16.70;99.90;;;;;;5058081;28;20207;-78
2022/09/30 12:49:03;;;;;;;12.32;2.33;;;16.60;99.90;;;;;;5045200;28;20209;-76
2022/09/30 12:51:45;;;;;;;14.55;3.00;;;16.60;99.90;;;;;;5055166;28;20220;-78
2022/09/30 12:54:29;;;;;;;11.50;3.05;;;16.60;99.90;;;;;;5037369;28;20324;-77
2022/09/30 12:57:03;;;;;;;18.25;3.33;;;16.60;99.90;;;;;;5054166;28;20219;-77
2022/09/30 12:59:38;;;;;;;12.32;2.60;;;16.70;99.90;;;;;;5057062;28;20196;-78
2022/09/30 13:02:12;;;;;;;18.88;3.53;;;16.70;99.90;;;;;;5058708;28;20231;-78
2022/09/30 13:04:50;;;;;;;10.38;2.75;;;16.70;99.90;;;;;;5065145;28;20183;-74
2022/09/30 13:07:26;;;;;;;10.82;2.58;;;16.70;99.90;;;;;;5062622;28;20644;-79
2022/09/30 13:10:28;;;;;;;12.02;2.70;;;16.70;99.90;;;;;;5057587;28;20212;-78
2022/09/30 13:13:28;;;;;;;15.23;2.97;;;16.70;99.90;;;;;;5043834;28;20263;-76
2022/09/30 13:16:07;;;;;;;11.48;3.00;;;16.70;99.90;;;;;;5058874;28;20696;-77
2022/09/30 13:19:03;;;;;;;11.05;2.20;;;16.70;99.90;;;;;;5063575;28;20201;-77
2022/09/30 13:21:33;;;;;;;11.45;2.30;;;16.60;99.90;;;;;;5052744;28;20200;-77
2022/09/30 13:24:05;;;;;;;15.27;2.72;;;16.70;99.90;;;;;;5046342;28;20172;-77
2022/09/30 13:26:52;;;;;;;10.43;2.47;;;16.70;99.90;;;;;;5056707;28;20207;-78
2022/09/30 13:29:42;;;;;;;9.88;2.35;;;16.60;99.90;;;;;;5050114;28;20216;-78
2022/09/30 13:32:13;;;;;;;9.23;2.38;;;16.60;99.90;;;;;;5055402;28;20239;-77
2022/09/30 13:35:21;;;;;;;8.80;2.72;;;16.60;99.90;;;;;;5057007;28;20211;-77
2022/09/30 13:41:13;;;;;;;11.48;2.38;;;16.70;99.90;;;;;;5058839;28;20223;-77
2022/09/30 13:44:01;;;;;;;8.43;2.72;;;16.70;99.90;;;;;;5055621;28;20206;-77
2022/09/30 13:46:37;;;;;;;11.88;2.50;;;16.70;99.90;;;;;;5049622;28;20205;-78
2022/09/30 13:49:17;;;;;;;9.13;2.10;;;16.70;99.90;;;;;;5038989;28;20243;-78
2022/09/30 13:51:52;;;;;;;8.23;1.98;;;16.70;99.90;;;;;;5038810;28;20220;-77
2022/09/30 13:54:30;;;;;;;8.20;2.40;;;16.70;99.90;;;;;;5035593;28;20320;-77
2022/09/30 13:57:03;;;;;;;10.18;2.55;;;16.70;99.90;;;;;;5047819;28;20196;-77
2022/09/30 13:59:48;;;;;;;8.43;2.08;;;16.70;99.90;;;;;;5050348;28;20200;-76